Terminal Aerodrome Forecast
Issued by NWS

Home | Current Version | Previous Version | Text Only | Print | Product List | Glossary On
Versions: 1 2 3 4 5 6 7 8 9 10 11 12 13 14 15 16 17 18 19 20 21 22 23 24 25 26 27 28 29 30 31 32 33 34 35 36 37 38 39
000
FTUS43 KFGF 231120
TAFDVL
TAF
KDVL 231120Z 2312/2412 VRB05KT P6SM OVC029
     FM231500 VRB05KT P6SM OVC018
     FM232200 VRB06KT P6SM BKN035
     FM240300 04007KT P6SM SCT090=

USA.gov is the U.S. government's official web portal to all federal, state and local government web resources and services.